Time;durP1;ratioP1;P1;durP2;ratioP2;P2;SDS_P1;SDS_P2;PMS_P1;PMS_P2;Temp;Humidity;BMP_temperature;BMP_pressure;BME280_temperature;BME280_humidity;BME280_pressure;Samples;Min_cycle;Max_cycle;Signal;HPM_P1;HPM_P2
2024/01/11 00:00:59;;;;;;;34.83;16.48;;;-6.00;99.90;;;;;;5034308;28;20722;-67
2024/01/11 00:03:24;;;;;;;40.47;15.95;;;-6.00;99.90;;;;;;5040318;28;20045;-67
2024/01/11 00:05:50;;;;;;;36.58;14.68;;;-6.10;99.90;;;;;;5039635;28;20063;-67
2024/01/11 00:08:16;;;;;;;34.22;15.40;;;-6.10;99.90;;;;;;5024906;28;20049;-67
2024/01/11 00:10:41;;;;;;;31.65;13.70;;;-6.10;99.90;;;;;;5024484;28;20037;-67
2024/01/11 00:13:07;;;;;;;37.17;16.00;;;-6.00;99.90;;;;;;5023289;28;20033;-67
2024/01/11 00:15:33;;;;;;;41.33;17.02;;;-6.00;99.90;;;;;;5025929;28;20050;-66
2024/01/11 00:17:58;;;;;;;38.15;18.23;;;-6.10;99.90;;;;;;5017678;28;20137;-67
2024/01/11 00:20:24;;;;;;;50.72;25.30;;;-6.10;99.90;;;;;;5011416;28;20077;-67
2024/01/11 00:22:49;;;;;;;42.67;19.70;;;-6.00;99.90;;;;;;5010723;28;20080;-67
2024/01/11 00:25:15;;;;;;;39.65;17.60;;;-6.10;99.90;;;;;;5013688;28;20041;-67
2024/01/11 00:27:40;;;;;;;47.47;20.65;;;-6.10;99.90;;;;;;5018563;28;20042;-67
2024/01/11 00:30:06;;;;;;;46.20;21.40;;;-6.10;99.90;;;;;;5020354;28;20030;-67
2024/01/11 00:32:32;;;;;;;33.80;15.15;;;-6.10;99.90;;;;;;5030742;28;20505;-67
2024/01/11 00:34:58;;;;;;;47.47;20.98;;;-6.20;99.90;;;;;;5029417;28;20052;-67
2024/01/11 00:37:25;;;;;;;40.67;17.70;;;-6.30;99.90;;;;;;5029495;28;20056;-66
2024/01/11 00:39:50;;;;;;;42.28;17.95;;;-6.30;99.90;;;;;;5038976;28;20041;-67
2024/01/11 00:42:16;;;;;;;30.23;13.45;;;-6.30;99.90;;;;;;5039005;28;20037;-67
2024/01/11 00:44:41;;;;;;;41.55;16.63;;;-6.40;99.90;;;;;;5039982;28;20053;-68
2024/01/11 00:47:07;;;;;;;30.33;13.30;;;-6.50;99.90;;;;;;5034081;28;20041;-67
2024/01/11 00:49:33;;;;;;;44.05;17.13;;;-6.50;99.90;;;;;;5040609;28;20038;-67
2024/01/11 00:51:58;;;;;;;66.22;25.33;;;-6.40;99.90;;;;;;5032748;28;20045;-68
2024/01/11 00:54:24;;;;;;;52.95;22.65;;;-6.40;99.90;;;;;;5035966;28;20580;-67
2024/01/11 00:56:50;;;;;;;41.95;17.13;;;-6.40;99.90;;;;;;5040486;28;20554;-67
2024/01/11 00:59:15;;;;;;;53.30;20.17;;;-6.50;99.90;;;;;;5044149;28;20044;-68
2024/01/11 01:01:47;;;;;;;42.28;17.23;;;-6.50;99.90;;;;;;5037720;28;20526;-67
2024/01/11 01:04:13;;;;;;;41.00;16.20;;;-6.50;99.90;;;;;;5031663;28;20045;-67
2024/01/11 01:06:38;;;;;;;33.30;13.98;;;-6.50;99.90;;;;;;5027466;28;20037;-67
2024/01/11 01:09:04;;;;;;;36.80;15.15;;;-6.50;99.90;;;;;;5033505;28;20056;-67
2024/01/11 01:11:29;;;;;;;41.88;16.58;;;-6.50;99.90;;;;;;5041802;28;20068;-66
2024/01/11 01:13:55;;;;;;;76.18;28.17;;;-6.50;99.90;;;;;;5035771;28;20445;-68
2024/01/11 01:16:20;;;;;;;52.03;19.95;;;-6.50;99.90;;;;;;5034789;28;20045;-66
2024/01/11 01:18:46;;;;;;;44.42;18.02;;;-6.50;99.90;;;;;;5041637;28;20869;-66
2024/01/11 01:21:12;;;;;;;42.92;17.35;;;-6.50;99.90;;;;;;5032636;28;20049;-68
2024/01/11 01:23:38;;;;;;;56.08;21.10;;;-6.50;99.90;;;;;;5040298;28;20485;-67
2024/01/11 01:26:03;;;;;;;46.60;18.20;;;-6.50;99.90;;;;;;5036537;28;20049;-67
2024/01/11 01:28:29;;;;;;;41.38;16.38;;;-6.50;99.90;;;;;;5035783;28;20072;-67
2024/01/11 01:30:54;;;;;;;32.22;14.38;;;-6.50;99.90;;;;;;5033708;28;20519;-68
2024/01/11 01:33:20;;;;;;;39.22;15.40;;;-6.60;99.90;;;;;;5043037;28;20060;-66
2024/01/11 01:35:46;;;;;;;37.97;14.75;;;-6.60;99.90;;;;;;5034349;28;20040;-67
2024/01/11 01:38:12;;;;;;;34.72;14.07;;;-6.70;99.90;;;;;;5037131;28;20038;-67
2024/01/11 01:40:37;;;;;;;32.45;14.27;;;-6.70;99.90;;;;;;5035559;28;20048;-68
2024/01/11 01:43:07;;;;;;;37.42;15.02;;;-6.70;99.90;;;;;;5036674;28;20056;-68
2024/01/11 01:45:33;;;;;;;38.00;14.35;;;-6.70;99.90;;;;;;5034619;28;20049;-67
2024/01/11 01:47:59;;;;;;;29.10;12.48;;;-6.70;99.90;;;;;;5031180;28;20044;-67
2024/01/11 01:50:25;;;;;;;36.15;13.70;;;-6.70;99.90;;;;;;5033938;28;20041;-67
2024/01/11 01:52:51;;;;;;;41.55;13.93;;;-6.70;99.90;;;;;;5032577;28;20112;-67
2024/01/11 01:55:19;;;;;;;37.83;14.20;;;-6.70;99.90;;;;;;5036437;28;20132;-67
2024/01/11 01:57:46;;;;;;;31.42;12.65;;;-6.70;99.90;;;;;;5028577;28;20072;-67
2024/01/11 02:00:13;;;;;;;29.08;13.13;;;-6.70;99.90;;;;;;5032640;28;20042;-65
2024/01/11 02:02:42;;;;;;;30.38;11.70;;;-6.70;99.90;;;;;;5033480;28;20040;-66
2024/01/11 02:05:10;;;;;;;34.00;13.80;;;-6.80;99.90;;;;;;5032150;28;20037;-68
2024/01/11 02:07:35;;;;;;;32.30;11.73;;;-6.80;99.90;;;;;;5032092;28;20075;-69
2024/01/11 02:10:02;;;;;;;37.05;14.13;;;-6.80;99.90;;;;;;5034065;28;20128;-69
2024/01/11 02:12:29;;;;;;;34.33;12.65;;;-6.80;99.90;;;;;;5033222;28;20044;-68
2024/01/11 02:14:54;;;;;;;33.35;13.00;;;-6.80;99.90;;;;;;5041056;28;20109;-68
2024/01/11 02:17:20;;;;;;;29.83;13.07;;;-6.70;99.90;;;;;;5035929;28;20170;-68
2024/01/11 02:19:46;;;;;;;33.60;12.02;;;-6.80;99.90;;;;;;5037617;28;20041;-68
2024/01/11 02:22:21;;;;;;;33.72;12.65;;;-6.80;99.90;;;;;;5025978;28;20164;-69
2024/01/11 02:24:47;;;;;;;37.07;13.37;;;-6.80;99.90;;;;;;5040223;28;20044;-68
2024/01/11 02:27:13;;;;;;;31.33;13.77;;;-6.70;99.90;;;;;;5034955;28;20386;-69
2024/01/11 02:29:38;;;;;;;38.63;12.52;;;-6.70;99.90;;;;;;5037663;28;20473;-69
2024/01/11 02:32:06;;;;;;;31.52;12.70;;;-6.70;99.90;;;;;;5039718;28;20067;-69
2024/01/11 02:34:31;;;;;;;30.20;11.57;;;-6.70;99.90;;;;;;5041333;28;20076;-68
2024/01/11 02:36:57;;;;;;;31.10;13.13;;;-6.70;99.90;;;;;;5041913;28;20083;-69
2024/01/11 02:39:24;;;;;;;27.23;11.93;;;-6.70;99.90;;;;;;5031941;28;20106;-69
2024/01/11 02:41:51;;;;;;;27.63;11.95;;;-6.70;99.90;;;;;;5031033;28;20420;-69
2024/01/11 02:44:17;;;;;;;28.60;11.82;;;-6.80;99.90;;;;;;5036303;28;20060;-69
2024/01/11 02:46:43;;;;;;;27.52;11.40;;;-6.80;99.90;;;;;;5038688;28;20068;-69
2024/01/11 02:49:08;;;;;;;27.25;11.48;;;-6.90;99.90;;;;;;5032420;28;20045;-68
2024/01/11 02:51:35;;;;;;;32.00;11.93;;;-6.90;99.90;;;;;;5031219;28;20071;-67
2024/01/11 02:54:01;;;;;;;27.05;11.00;;;-6.90;99.90;;;;;;5034541;28;20040;-66
2024/01/11 02:56:26;;;;;;;28.95;11.68;;;-6.90;99.90;;;;;;5038820;28;20060;-67
2024/01/11 02:58:52;;;;;;;27.95;10.68;;;-6.90;99.90;;;;;;5035790;28;20052;-68
2024/01/11 03:01:17;;;;;;;33.00;11.20;;;-6.90;99.90;;;;;;5042933;28;20048;-66
2024/01/11 03:03:43;;;;;;;22.88;10.30;;;-6.80;99.90;;;;;;5036377;28;20060;-67
2024/01/11 03:06:09;;;;;;;28.63;10.82;;;-6.80;99.90;;;;;;5035108;28;20053;-66
2024/01/11 03:08:35;;;;;;;23.92;10.32;;;-6.80;99.90;;;;;;5031463;28;20052;-67
2024/01/11 03:11:01;;;;;;;22.75;10.35;;;-6.80;99.90;;;;;;5032834;28;20437;-66
2024/01/11 03:13:27;;;;;;;20.75;9.20;;;-6.80;99.90;;;;;;5030074;28;20045;-67
2024/01/11 03:15:53;;;;;;;28.27;10.07;;;-6.90;99.90;;;;;;5040711;28;20038;-68
2024/01/11 03:18:18;;;;;;;22.17;9.98;;;-6.90;99.90;;;;;;5040390;28;20053;-67
2024/01/11 03:20:44;;;;;;;22.52;9.73;;;-6.90;99.90;;;;;;5039073;28;20041;-67
2024/01/11 03:23:09;;;;;;;23.88;9.85;;;-7.00;99.90;;;;;;5034503;28;20044;-68
2024/01/11 03:25:35;;;;;;;26.92;10.27;;;-7.00;99.90;;;;;;5037274;28;20049;-67
2024/01/11 03:28:00;;;;;;;23.85;9.77;;;-7.00;99.90;;;;;;5038856;28;20044;-68
2024/01/11 03:30:26;;;;;;;23.15;9.60;;;-6.90;99.90;;;;;;5033424;28;20566;-67
2024/01/11 03:32:52;;;;;;;20.52;9.07;;;-6.90;99.90;;;;;;5040885;28;20112;-68
2024/01/11 03:35:18;;;;;;;24.45;9.77;;;-6.90;99.90;;;;;;5038781;28;20481;-67
2024/01/11 03:37:44;;;;;;;27.67;11.25;;;-6.90;99.90;;;;;;5034732;28;20459;-67
2024/01/11 03:40:11;;;;;;;22.65;9.55;;;-6.90;99.90;;;;;;5023736;28;20072;-67
2024/01/11 03:42:36;;;;;;;24.73;10.77;;;-6.90;99.90;;;;;;5032148;28;20044;-67
2024/01/11 03:45:03;;;;;;;23.83;9.93;;;-7.00;99.90;;;;;;5039082;28;20037;-67
2024/01/11 03:47:28;;;;;;;21.20;10.38;;;-6.90;99.90;;;;;;5045570;28;20037;-68
2024/01/11 03:49:54;;;;;;;22.02;9.85;;;-7.00;99.90;;;;;;5039311;28;20041;-68
2024/01/11 03:52:20;;;;;;;24.08;9.27;;;-6.90;99.90;;;;;;5040309;28;20366;-68
2024/01/11 03:54:45;;;;;;;19.63;8.90;;;-6.90;99.90;;;;;;5043185;28;20082;-68
2024/01/11 03:57:11;;;;;;;18.67;8.52;;;-7.00;99.90;;;;;;5039991;28;20045;-67
2024/01/11 03:59:37;;;;;;;21.05;8.88;;;-7.00;99.90;;;;;;5026525;28;20037;-68
2024/01/11 04:02:03;;;;;;;21.88;9.65;;;-7.00;99.90;;;;;;5034591;28;20049;-68
2024/01/11 04:04:28;;;;;;;19.95;8.35;;;-7.00;99.90;;;;;;5033456;28;20124;-68
2024/01/11 04:06:54;;;;;;;21.13;9.10;;;-7.00;99.90;;;;;;5034222;28;20640;-68
2024/01/11 04:09:20;;;;;;;23.48;9.52;;;-7.00;99.90;;;;;;5043542;28;20045;-68
2024/01/11 04:11:46;;;;;;;14.48;6.95;;;-7.00;99.90;;;;;;5048448;28;20565;-68
2024/01/11 04:14:14;;;;;;;19.83;8.73;;;-7.00;99.90;;;;;;5042888;28;20049;-69
2024/01/11 04:16:43;;;;;;;21.67;8.65;;;-7.10;99.90;;;;;;5042238;28;20041;-68
2024/01/11 04:19:09;;;;;;;19.95;8.70;;;-7.10;99.90;;;;;;5035269;28;20038;-67
2024/01/11 04:21:35;;;;;;;17.45;7.82;;;-7.10;99.90;;;;;;5045952;28;20088;-70
2024/01/11 04:24:00;;;;;;;19.33;8.32;;;-7.10;99.90;;;;;;5046746;28;20071;-68
2024/01/11 04:26:26;;;;;;;19.65;8.77;;;-7.00;99.90;;;;;;5034321;28;20036;-67
2024/01/11 04:28:52;;;;;;;20.48;8.68;;;-7.10;99.90;;;;;;5021282;22;20413;-67
2024/01/11 04:31:18;;;;;;;21.90;8.05;;;-7.00;99.90;;;;;;5021618;28;20053;-67
2024/01/11 04:33:45;;;;;;;16.27;7.03;;;-7.00;99.90;;;;;;5020026;28;20038;-68
2024/01/11 04:36:14;;;;;;;18.52;8.20;;;-7.00;99.90;;;;;;5018056;28;20038;-66
2024/01/11 04:38:40;;;;;;;19.98;7.60;;;-7.00;99.90;;;;;;5026717;28;20079;-67
2024/01/11 04:41:10;;;;;;;16.48;7.85;;;-7.00;99.90;;;;;;5038255;28;20069;-67
2024/01/11 04:43:43;;;;;;;23.60;8.40;;;-7.00;99.90;;;;;;5046764;28;20040;-68
2024/01/11 04:46:18;;;;;;;22.48;7.65;;;-7.00;99.90;;;;;;5033478;28;20045;-68
2024/01/11 04:48:44;;;;;;;19.63;7.10;;;-7.00;99.90;;;;;;5042334;28;20518;-66
2024/01/11 04:51:10;;;;;;;18.02;7.40;;;-7.00;99.90;;;;;;5038998;28;20033;-68
2024/01/11 04:53:40;;;;;;;18.85;8.20;;;-7.00;99.90;;;;;;5040331;28;20045;-68
2024/01/11 04:56:10;;;;;;;22.15;8.60;;;-7.10;99.90;;;;;;5038213;28;20049;-68
2024/01/11 04:58:38;;;;;;;16.98;7.50;;;-7.10;99.90;;;;;;5040501;28;20045;-68
2024/01/11 05:01:05;;;;;;;20.10;8.43;;;-7.00;99.90;;;;;;5041931;28;20040;-67
2024/01/11 05:03:31;;;;;;;16.98;7.35;;;-7.00;99.90;;;;;;5059252;28;20044;-67
2024/01/11 05:05:57;;;;;;;18.90;7.88;;;-7.00;99.90;;;;;;5064389;28;20062;-67
2024/01/11 05:08:23;;;;;;;19.90;7.90;;;-7.00;99.90;;;;;;5059594;28;20382;-67
2024/01/11 05:10:50;;;;;;;19.67;7.47;;;-7.00;99.90;;;;;;5054931;28;20036;-67
2024/01/11 05:13:17;;;;;;;17.75;7.55;;;-7.00;99.90;;;;;;5061121;28;20040;-67
2024/01/11 05:15:42;;;;;;;18.73;7.40;;;-7.00;99.90;;;;;;5060673;28;20041;-67
2024/01/11 05:18:08;;;;;;;16.27;7.60;;;-7.00;99.90;;;;;;5042520;28;20041;-68
2024/01/11 05:20:34;;;;;;;18.95;7.53;;;-6.90;99.90;;;;;;5062697;28;20072;-68
2024/01/11 05:23:03;;;;;;;14.82;6.88;;;-6.90;99.90;;;;;;5060004;28;20036;-65
2024/01/11 05:25:32;;;;;;;17.60;7.30;;;-6.90;99.90;;;;;;5052416;28;20412;-67
2024/01/11 05:28:00;;;;;;;21.38;7.57;;;-6.90;99.90;;;;;;5051737;28;20049;-68
2024/01/11 05:30:26;;;;;;;14.00;6.20;;;-6.90;99.90;;;;;;5054424;28;20072;-68
2024/01/11 05:32:52;;;;;;;13.50;6.70;;;-6.90;99.90;;;;;;5054564;28;20098;-69
2024/01/11 05:35:18;;;;;;;13.10;6.57;;;-6.90;99.90;;;;;;5065307;28;20107;-68
2024/01/11 05:37:44;;;;;;;16.50;6.22;;;-6.90;99.90;;;;;;5052595;28;20037;-69
2024/01/11 05:40:09;;;;;;;17.27;7.85;;;-6.90;99.90;;;;;;5059784;28;20055;-67
2024/01/11 05:42:35;;;;;;;14.48;6.47;;;-6.90;99.90;;;;;;5063634;28;20832;-66
2024/01/11 05:45:01;;;;;;;19.30;8.48;;;-6.90;99.90;;;;;;5059036;28;20072;-66
2024/01/11 05:47:26;;;;;;;19.55;6.15;;;-6.90;99.90;;;;;;5060391;28;20054;-68
2024/01/11 05:49:52;;;;;;;14.57;5.70;;;-6.90;99.90;;;;;;5065388;28;20043;-68
2024/01/11 05:52:17;;;;;;;15.23;6.22;;;-6.90;99.90;;;;;;5057030;28;21007;-67
2024/01/11 05:54:43;;;;;;;17.17;6.90;;;-6.90;99.90;;;;;;5051499;28;20037;-68
2024/01/11 05:57:10;;;;;;;12.63;5.72;;;-7.00;99.90;;;;;;5059184;28;20040;-68
2024/01/11 05:59:36;;;;;;;16.17;5.63;;;-7.00;99.90;;;;;;5060530;28;20119;-67
2024/01/11 06:02:01;;;;;;;15.48;5.70;;;-6.90;99.90;;;;;;5059690;28;20139;-68
2024/01/11 06:04:27;;;;;;;14.20;6.22;;;-6.90;99.90;;;;;;5062896;28;20123;-67
2024/01/11 06:06:57;;;;;;;14.27;5.75;;;-6.90;99.90;;;;;;5054867;28;20037;-68
2024/01/11 06:09:22;;;;;;;12.98;5.63;;;-6.90;99.90;;;;;;5053404;28;20702;-67
2024/01/11 06:11:48;;;;;;;13.95;5.65;;;-6.90;99.90;;;;;;5058001;28;20249;-68
2024/01/11 06:14:13;;;;;;;14.43;5.45;;;-6.90;99.90;;;;;;5059916;28;20043;-68
2024/01/11 06:16:40;;;;;;;15.70;6.07;;;-6.90;99.90;;;;;;5060658;28;20059;-68
2024/01/11 06:19:07;;;;;;;12.60;5.43;;;-6.90;99.90;;;;;;5052903;28;20045;-68
2024/01/11 06:21:33;;;;;;;35.88;10.00;;;-6.90;99.90;;;;;;5059809;28;20048;-68
2024/01/11 06:23:58;;;;;;;17.95;6.07;;;-6.80;99.90;;;;;;5045892;28;20033;-68
2024/01/11 06:26:24;;;;;;;16.83;5.95;;;-6.60;99.90;;;;;;5063024;28;20033;-69
2024/01/11 06:28:49;;;;;;;11.65;5.50;;;-6.60;99.90;;;;;;5051326;28;20049;-67
2024/01/11 06:31:15;;;;;;;15.60;6.63;;;-6.60;99.90;;;;;;5055458;28;20524;-68
2024/01/11 06:33:41;;;;;;;20.65;7.18;;;-6.60;99.90;;;;;;5063397;28;20463;-68
2024/01/11 06:36:07;;;;;;;20.80;6.40;;;-6.60;99.90;;;;;;5065832;28;20496;-68
2024/01/11 06:38:33;;;;;;;18.90;6.60;;;-6.60;99.90;;;;;;5043877;28;20046;-68
2024/01/11 06:40:59;;;;;;;14.68;6.53;;;-6.60;99.90;;;;;;5063095;28;20066;-68
2024/01/11 06:43:25;;;;;;;13.57;5.75;;;-6.50;99.90;;;;;;5061682;28;20755;-68
2024/01/11 06:45:50;;;;;;;14.20;5.78;;;-6.50;99.90;;;;;;5067400;28;20123;-68
2024/01/11 06:48:16;;;;;;;18.83;6.50;;;-6.50;99.90;;;;;;5059745;28;20048;-67
2024/01/11 06:50:42;;;;;;;20.52;6.18;;;-6.60;99.90;;;;;;5067373;28;20032;-67
2024/01/11 06:53:07;;;;;;;14.73;6.18;;;-6.60;99.90;;;;;;5048496;28;20454;-68
2024/01/11 06:55:33;;;;;;;15.85;6.65;;;-6.60;99.90;;;;;;5062141;28;20070;-68
2024/01/11 06:57:59;;;;;;;16.98;6.85;;;-6.60;99.90;;;;;;5063347;28;20036;-67
2024/01/11 07:00:24;;;;;;;12.88;6.15;;;-6.60;99.90;;;;;;5065584;28;20036;-67
2024/01/11 07:02:51;;;;;;;16.83;6.95;;;-6.60;99.90;;;;;;5062758;28;20387;-67
2024/01/11 07:05:16;;;;;;;17.40;6.75;;;-6.60;99.90;;;;;;5060361;28;20048;-68
2024/01/11 07:07:42;;;;;;;18.27;6.60;;;-6.60;99.90;;;;;;5061288;28;20045;-68
2024/01/11 07:10:08;;;;;;;18.17;6.72;;;-6.60;99.90;;;;;;5049031;28;20496;-69
2024/01/11 07:12:34;;;;;;;16.13;7.45;;;-6.60;99.90;;;;;;5062422;28;20101;-68
2024/01/11 07:14:59;;;;;;;17.48;7.78;;;-6.60;99.90;;;;;;5064513;28;20036;-67
2024/01/11 07:17:25;;;;;;;18.77;8.15;;;-6.60;99.90;;;;;;5060147;28;20044;-68
2024/01/11 07:19:50;;;;;;;24.35;10.48;;;-6.50;99.90;;;;;;5057233;28;20511;-69
2024/01/11 07:22:16;;;;;;;20.67;9.20;;;-6.40;99.90;;;;;;5051892;28;20041;-68
2024/01/11 07:24:42;;;;;;;23.70;10.25;;;-6.40;99.90;;;;;;5048205;28;20566;-68
2024/01/11 07:27:08;;;;;;;24.67;8.07;;;-6.40;99.90;;;;;;5049281;28;20047;-67
2024/01/11 07:29:34;;;;;;;18.50;8.07;;;-6.50;99.90;;;;;;5063152;28;20131;-67
2024/01/11 07:32:00;;;;;;;25.55;10.50;;;-6.50;99.90;;;;;;5068201;28;20037;-66
2024/01/11 07:34:26;;;;;;;32.95;13.75;;;-6.50;99.90;;;;;;5058569;28;20037;-65
2024/01/11 07:36:55;;;;;;;26.15;10.57;;;-6.40;99.90;;;;;;5058633;28;20045;-67
2024/01/11 07:39:22;;;;;;;22.67;9.90;;;-6.30;99.90;;;;;;5057888;28;20103;-65
2024/01/11 07:41:48;;;;;;;22.33;9.07;;;-6.30;99.90;;;;;;5070218;28;20055;-65
2024/01/11 07:44:13;;;;;;;24.13;9.43;;;-6.30;99.90;;;;;;5055515;28;20044;-66
2024/01/11 07:46:39;;;;;;;23.65;8.70;;;-6.30;99.90;;;;;;5069417;28;20058;-66
2024/01/11 07:49:04;;;;;;;30.08;11.73;;;-6.30;99.90;;;;;;5058898;28;20037;-68
2024/01/11 07:51:30;;;;;;;33.38;13.50;;;-6.20;99.90;;;;;;5055652;28;20056;-66
2024/01/11 07:53:56;;;;;;;19.58;9.20;;;-6.20;99.90;;;;;;5058421;28;20049;-67
2024/01/11 07:56:22;;;;;;;25.90;9.00;;;-6.10;99.90;;;;;;5067165;28;20706;-68
2024/01/11 07:58:47;;;;;;;18.85;7.55;;;-6.10;99.90;;;;;;5064338;28;20495;-67
2024/01/11 08:01:15;;;;;;;19.02;7.75;;;-6.00;99.90;;;;;;5054274;28;20041;-67
2024/01/11 08:03:44;;;;;;;18.60;7.15;;;-5.90;99.90;;;;;;5067053;28;20090;-66
2024/01/11 08:06:10;;;;;;;24.10;7.43;;;-5.90;99.90;;;;;;5054482;28;20056;-67
2024/01/11 08:08:38;;;;;;;19.30;6.85;;;-5.80;99.90;;;;;;5063516;28;20412;-66
2024/01/11 08:11:04;;;;;;;19.70;7.10;;;-5.80;99.90;;;;;;5064182;28;20048;-67
2024/01/11 08:13:31;;;;;;;31.95;13.70;;;-5.80;99.90;;;;;;5063914;28;20060;-67
2024/01/11 08:15:57;;;;;;;20.55;9.15;;;-5.70;99.90;;;;;;5060907;28;20044;-67
2024/01/11 08:18:23;;;;;;;15.48;6.68;;;-5.70;99.90;;;;;;5055869;28;20042;-68
2024/01/11 08:20:49;;;;;;;20.20;8.88;;;-5.60;99.90;;;;;;5062341;28;20795;-67
2024/01/11 08:23:15;;;;;;;20.38;8.77;;;-5.50;99.90;;;;;;5051022;28;20099;-68
2024/01/11 08:25:40;;;;;;;17.20;6.78;;;-5.50;99.90;;;;;;5067975;28;20104;-66
2024/01/11 08:28:07;;;;;;;14.88;6.63;;;-5.50;99.90;;;;;;5058282;28;20626;-67
2024/01/11 08:30:32;;;;;;;20.25;8.45;;;-5.40;99.90;;;;;;5069890;28;20123;-67
2024/01/11 08:32:58;;;;;;;17.88;7.65;;;-5.40;99.90;;;;;;5063623;28;20119;-67
2024/01/11 08:35:24;;;;;;;13.98;6.38;;;-5.40;99.90;;;;;;5059543;28;20043;-67
2024/01/11 08:37:49;;;;;;;14.82;6.40;;;-5.40;99.90;;;;;;5064796;28;20041;-66
2024/01/11 08:40:15;;;;;;;12.65;6.32;;;-5.30;99.90;;;;;;5055477;28;20039;-68
2024/01/11 08:42:42;;;;;;;18.50;7.47;;;-5.20;99.90;;;;;;5053101;28;20157;-67
2024/01/11 08:45:08;;;;;;;41.63;15.80;;;-5.10;99.90;;;;;;5060684;28;20043;-68
2024/01/11 08:47:35;;;;;;;38.47;14.95;;;-5.00;99.90;;;;;;5051970;28;20037;-68
2024/01/11 08:50:01;;;;;;;19.50;7.82;;;-4.90;99.90;;;;;;5049380;28;20049;-67
2024/01/11 08:52:26;;;;;;;12.98;6.05;;;-4.80;99.90;;;;;;5054271;28;20045;-68
2024/01/11 08:54:52;;;;;;;11.43;5.78;;;-4.70;99.90;;;;;;5053112;28;20368;-69
2024/01/11 08:57:18;;;;;;;10.60;5.18;;;-4.70;99.90;;;;;;5052455;28;20057;-69
2024/01/11 08:59:44;;;;;;;8.93;4.63;;;-4.60;99.90;;;;;;5045381;28;20041;-68
2024/01/11 09:02:10;;;;;;;11.65;4.85;;;-4.50;99.90;;;;;;5060476;28;20110;-68
2024/01/11 09:04:36;;;;;;;10.82;5.53;;;-4.40;99.90;;;;;;5054892;28;20128;-68
2024/01/11 09:07:02;;;;;;;11.98;4.95;;;-4.20;99.90;;;;;;5056651;28;20585;-68
2024/01/11 09:09:33;;;;;;;9.10;5.28;;;-4.10;99.90;;;;;;5059711;28;20137;-68
2024/01/11 09:11:58;;;;;;;10.15;4.50;;;-4.10;99.90;;;;;;5059553;28;20040;-68
2024/01/11 09:14:24;;;;;;;9.90;3.92;;;-4.00;99.90;;;;;;5058986;28;20036;-68
2024/01/11 09:16:56;;;;;;;6.38;3.25;;;-3.90;99.90;;;;;;5061329;28;20102;-67
2024/01/11 09:19:22;;;;;;;10.73;3.88;;;-3.90;99.90;;;;;;5057317;28;20037;-67
2024/01/11 09:21:48;;;;;;;6.45;3.15;;;-3.70;99.90;;;;;;5059739;28;20043;-68
2024/01/11 09:24:14;;;;;;;6.22;3.53;;;-3.60;99.90;;;;;;5058600;28;20044;-65
2024/01/11 09:26:39;;;;;;;9.30;4.22;;;-3.50;99.90;;;;;;5051427;28;20044;-67
2024/01/11 09:29:05;;;;;;;6.15;3.47;;;-3.30;99.90;;;;;;5053822;28;20048;-68
2024/01/11 09:31:30;;;;;;;7.18;4.25;;;-3.20;99.90;;;;;;5060123;28;20531;-68
2024/01/11 09:33:57;;;;;;;10.30;4.30;;;-3.20;99.90;;;;;;5065235;28;20119;-68
2024/01/11 09:36:22;;;;;;;8.02;4.22;;;-3.00;99.90;;;;;;5070100;28;20052;-68
2024/01/11 09:38:48;;;;;;;8.32;3.80;;;-3.00;99.90;;;;;;5062932;28;20119;-68
2024/01/11 09:41:16;;;;;;;7.20;4.13;;;-2.80;99.90;;;;;;5052065;28;20545;-68
2024/01/11 09:43:54;;;;;;;5.10;3.40;;;-2.70;99.90;;;;;;5056106;28;20213;-68
2024/01/11 09:46:20;;;;;;;5.50;3.15;;;-2.70;99.90;;;;;;5018877;28;20111;-68
2024/01/11 09:48:47;;;;;;;8.65;3.70;;;-2.60;99.90;;;;;;5061432;28;20512;-68
2024/01/11 09:51:13;;;;;;;6.75;3.83;;;-2.70;99.90;;;;;;5056416;28;20057;-68
2024/01/11 09:53:42;;;;;;;6.53;3.53;;;-2.50;99.90;;;;;;5039767;23;20065;-68
2024/01/11 09:56:09;;;;;;;8.27;3.10;;;-2.40;99.90;;;;;;5010546;28;20077;-68
2024/01/11 09:58:38;;;;;;;11.15;5.35;;;-2.30;99.90;;;;;;5017704;28;20060;-67
2024/01/11 10:01:15;;;;;;;8.68;3.72;;;-2.10;99.90;;;;;;5024024;28;20061;-69
2024/01/11 10:03:46;;;;;;;10.82;4.20;;;-1.90;99.90;;;;;;5014201;28;20038;-68
2024/01/11 10:06:13;;;;;;;4.57;3.08;;;-1.70;99.90;;;;;;5006994;28;20104;-69
2024/01/11 10:08:39;;;;;;;6.68;2.45;;;-1.60;99.90;;;;;;5015330;28;20053;-69
2024/01/11 10:11:05;;;;;;;18.00;8.90;;;-1.60;99.90;;;;;;5014092;28;20042;-68
2024/01/11 10:13:32;;;;;;;12.20;6.30;;;-1.50;99.90;;;;;;5015110;28;20040;-69
2024/01/11 10:16:09;;;;;;;9.40;5.15;;;-1.40;99.90;;;;;;5017877;28;20058;-69
2024/01/11 10:18:36;;;;;;;7.57;3.92;;;-1.30;99.90;;;;;;5015318;28;20156;-69
2024/01/11 10:21:03;;;;;;;7.82;3.17;;;-1.20;99.90;;;;;;5011315;28;20038;-68
2024/01/11 10:23:28;;;;;;;5.30;2.90;;;-1.10;99.90;;;;;;5014982;28;20140;-67
2024/01/11 10:25:57;;;;;;;3.88;2.53;;;-0.90;99.90;;;;;;5011728;28;20121;-67
2024/01/11 10:28:26;;;;;;;5.97;3.05;;;-0.80;99.90;;;;;;5011574;28;20141;-66
2024/01/11 10:30:53;;;;;;;10.77;3.58;;;-0.70;99.90;;;;;;5022271;28;20062;-66
2024/01/11 10:33:23;;;;;;;4.85;2.50;;;-0.60;99.90;;;;;;5015012;28;20053;-67
2024/01/11 10:35:49;;;;;;;6.28;2.90;;;-0.40;99.90;;;;;;5023575;28;20073;-66
2024/01/11 10:38:16;;;;;;;4.25;2.25;;;-0.30;99.90;;;;;;5017664;28;20038;-67
2024/01/11 10:40:42;;;;;;;7.40;2.58;;;-0.20;99.90;;;;;;5014812;28;20062;-67
2024/01/11 10:43:12;;;;;;;5.25;2.08;;;0.00;99.90;;;;;;5024815;28;20481;-67
2024/01/11 10:45:41;;;;;;;3.53;2.00;;;0.10;99.90;;;;;;5015714;28;20038;-67
2024/01/11 10:48:16;;;;;;;3.42;1.95;;;0.20;99.90;;;;;;5014664;28;20042;-66
2024/01/11 10:50:49;;;;;;;4.10;1.93;;;0.30;99.90;;;;;;5022134;28;20046;-67
2024/01/11 10:53:32;;;;;;;4.50;2.50;;;0.40;99.90;;;;;;5014568;28;20044;-67
2024/01/11 10:55:58;;;;;;;5.75;2.05;;;0.60;99.90;;;;;;5011342;28;20041;-67
2024/01/11 10:58:26;;;;;;;8.60;2.03;;;0.70;99.90;;;;;;5018853;23;20045;-82
2024/01/11 11:00:55;;;;;;;4.88;2.47;;;0.70;99.90;;;;;;5018435;28;20054;-80
2024/01/11 11:03:24;;;;;;;4.60;2.58;;;0.80;99.90;;;;;;5007322;28;20125;-80
2024/01/11 11:05:53;;;;;;;4.40;2.33;;;0.90;99.90;;;;;;5012901;28;20542;-79
2024/01/11 11:08:20;;;;;;;3.22;1.77;;;1.00;99.90;;;;;;5013756;28;20121;-80
2024/01/11 11:10:47;;;;;;;5.35;2.15;;;1.00;99.90;;;;;;5007489;28;20042;-82
2024/01/11 11:13:18;;;;;;;4.03;1.95;;;1.10;99.90;;;;;;5009445;28;20067;-80
2024/01/11 11:15:48;;;;;;;3.03;1.95;;;1.10;99.90;;;;;;5014096;28;20034;-79
2024/01/11 11:18:16;;;;;;;5.20;2.05;;;1.20;99.90;;;;;;5011061;28;20407;-79
2024/01/11 11:20:42;;;;;;;4.20;2.00;;;1.30;99.90;;;;;;5012918;28;20056;-80
2024/01/11 11:23:12;;;;;;;9.30;2.67;;;1.30;99.90;;;;;;5015695;28;20034;-81
2024/01/11 11:25:42;;;;;;;4.75;2.33;;;1.40;99.90;;;;;;5017308;28;20064;-81
2024/01/11 11:28:08;;;;;;;7.90;2.65;;;1.50;99.90;;;;;;5015231;28;20072;-80
2024/01/11 11:30:41;;;;;;;6.13;2.50;;;1.50;99.90;;;;;;5012400;28;20639;-79
2024/01/11 11:33:17;;;;;;;6.85;3.28;;;1.50;99.90;;;;;;5015052;28;20042;-81
2024/01/11 11:35:51;;;;;;;7.82;2.88;;;1.50;99.90;;;;;;5011568;28;20042;-81
2024/01/11 11:38:22;;;;;;;5.50;2.42;;;1.60;99.90;;;;;;5014625;28;20030;-81
2024/01/11 11:40:51;;;;;;;4.07;2.28;;;1.60;99.90;;;;;;5014278;28;20117;-81
2024/01/11 11:43:18;;;;;;;3.88;2.00;;;1.70;99.90;;;;;;5014097;28;20430;-81
2024/01/11 11:45:46;;;;;;;2.53;1.50;;;1.80;99.90;;;;;;5008503;28;20052;-81
2024/01/11 11:48:36;;;;;;;4.53;1.90;;;1.80;99.90;;;;;;5016311;28;20042;-81
2024/01/11 11:51:18;;;;;;;4.03;1.40;;;1.80;99.90;;;;;;5012807;28;20423;-81
2024/01/11 11:53:46;;;;;;;2.45;1.38;;;1.90;99.90;;;;;;5010908;28;20038;-82
2024/01/11 11:56:14;;;;;;;4.53;1.55;;;1.90;99.90;;;;;;5011144;28;20480;-82
2024/01/11 11:58:41;;;;;;;2.22;1.15;;;2.10;99.90;;;;;;5012815;28;20069;-82
2024/01/11 12:01:07;;;;;;;3.22;1.55;;;2.10;99.90;;;;;;5012008;28;20038;-82
2024/01/11 12:03:37;;;;;;;2.25;1.15;;;2.20;99.90;;;;;;5015345;28;20040;-80
2024/01/11 12:06:08;;;;;;;3.72;1.27;;;2.20;99.90;;;;;;5013011;28;20068;-81
2024/01/11 12:08:35;;;;;;;4.50;1.42;;;2.30;99.90;;;;;;5014039;28;20050;-82
2024/01/11 12:11:01;;;;;;;8.80;1.60;;;2.30;99.90;;;;;;5008532;28;20045;-81
2024/01/11 12:13:27;;;;;;;4.47;1.40;;;2.40;99.90;;;;;;5011778;28;20105;-81
2024/01/11 12:15:53;;;;;;;2.63;1.02;;;2.40;99.50;;;;;;5013052;28;20034;-81
2024/01/11 12:18:19;;;;;;;2.20;1.02;;;2.50;99.70;;;;;;5020320;28;20038;-82
2024/01/11 12:20:45;;;;;;;1.50;0.70;;;2.50;99.90;;;;;;5021391;28;20045;-83
2024/01/11 12:23:13;;;;;;;2.45;0.90;;;2.50;99.90;;;;;;5019501;28;20044;-82
2024/01/11 12:25:46;;;;;;;1.65;0.82;;;2.60;98.80;;;;;;5014018;28;20042;-81
2024/01/11 12:28:14;;;;;;;3.33;1.50;;;2.60;96.20;;;;;;5024747;28;20087;-79
2024/01/11 12:30:46;;;;;;;2.90;1.70;;;2.70;93.20;;;;;;5020578;28;20124;-82
2024/01/11 12:33:13;;;;;;;3.30;2.10;;;2.80;93.20;;;;;;5021206;28;20034;-82
2024/01/11 12:35:40;;;;;;;5.80;2.30;;;2.80;92.70;;;;;;5011763;28;20641;-80